Time;durP1;ratioP1;P1;durP2;ratioP2;P2;SDS_P1;SDS_P2;PMS_P1;PMS_P2;Temp;Humidity;BMP_temperature;BMP_pressure;BME280_temperature;BME280_humidity;BME280_pressure;Samples;Min_cycle;Max_cycle;Signal;HPM_P1;HPM_P2
2023/08/29 00:01:55;;;;;;;3.70;3.03;;;;;;;;;;5018067;28;20204;-85
2023/08/29 00:04:21;;;;;;;3.87;2.80;;;;;;;;;;5017604;28;20187;-85
2023/08/29 00:06:47;;;;;;;5.57;3.13;;;;;;;;;;5017232;28;20429;-85
2023/08/29 00:09:13;;;;;;;5.00;3.55;;;;;;;;;;5016913;28;20413;-85
2023/08/29 00:11:39;;;;;;;4.93;3.42;;;;;;;;;;5044451;28;20431;-85
2023/08/29 00:14:05;;;;;;;5.43;3.20;;;;;;;;;;5037240;28;20416;-85
2023/08/29 00:16:34;;;;;;;5.63;2.90;;;;;;;;;;5037542;28;20187;-85
2023/08/29 00:19:00;;;;;;;4.07;2.53;;;;;;;;;;5037761;28;20233;-85
2023/08/29 00:21:27;;;;;;;4.70;3.10;;;;;;;;;;5036400;28;20412;-85
2023/08/29 00:23:53;;;;;;;3.97;3.03;;;;;;;;;;5052827;28;20403;-85
2023/08/29 00:26:22;;;;;;;5.97;3.40;;;;;;;;;;5035905;28;20412;-85
2023/08/29 00:28:49;;;;;;;4.95;3.03;;;;;;;;;;5053087;28;20476;-85
2023/08/29 00:31:15;;;;;;;4.90;3.05;;;;;;;;;;5036462;28;20408;-85
2023/08/29 00:33:41;;;;;;;4.38;2.90;;;;;;;;;;5052890;28;20426;-85
2023/08/29 00:36:07;;;;;;;4.22;2.97;;;;;;;;;;5036100;28;20408;-85
2023/08/29 00:38:33;;;;;;;5.53;3.10;;;;;;;;;;5036502;28;20436;-84
2023/08/29 00:41:00;;;;;;;3.28;2.53;;;;;;;;;;5052577;28;20509;-85
2023/08/29 00:43:26;;;;;;;3.33;2.63;;;;;;;;;;5050278;28;20432;-85
2023/08/29 00:45:52;;;;;;;4.93;2.80;;;;;;;;;;5052499;28;20509;-85
2023/08/29 00:48:18;;;;;;;4.70;2.70;;;;;;;;;;5052322;28;20404;-85
2023/08/29 00:50:44;;;;;;;5.35;2.90;;;;;;;;;;5036026;28;20443;-85
2023/08/29 00:53:11;;;;;;;6.10;2.80;;;;;;;;;;5052277;28;20408;-85
2023/08/29 00:55:39;;;;;;;4.43;2.80;;;;;;;;;;5036400;28;20453;-85
2023/08/29 00:58:06;;;;;;;3.73;2.60;;;;;;;;;;5053265;28;20184;-85
2023/08/29 01:00:32;;;;;;;4.33;2.40;;;;;;;;;;5036739;28;20184;-85
2023/08/29 01:02:59;;;;;;;3.10;2.60;;;;;;;;;;5039632;28;20220;-85
2023/08/29 01:05:28;;;;;;;4.63;2.57;;;;;;;;;;5053220;28;20207;-85
2023/08/29 01:07:58;;;;;;;4.77;2.73;;;;;;;;;;5052908;28;20180;-85
2023/08/29 01:10:50;;;;;;;5.63;2.40;;;;;;;;;;5053027;28;20266;-85
2023/08/29 01:13:35;;;;;;;3.67;2.85;;;;;;;;;;5052216;28;20408;-85
2023/08/29 01:16:04;;;;;;;3.25;2.60;;;;;;;;;;5052509;28;20400;-85
2023/08/29 01:18:34;;;;;;;5.28;2.80;;;;;;;;;;5043158;28;20441;-85
2023/08/29 01:21:06;;;;;;;4.60;2.00;;;;;;;;;;5033135;28;20195;-85
2023/08/29 01:23:36;;;;;;;4.00;2.77;;;;;;;;;;5033038;28;20208;-85
2023/08/29 01:26:07;;;;;;;4.72;2.90;;;;;;;;;;5032573;28;20484;-85
2023/08/29 01:28:33;;;;;;;4.90;2.83;;;;;;;;;;5032731;28;20179;-85
2023/08/29 01:31:00;;;;;;;5.20;2.80;;;;;;;;;;5032927;28;20168;-84
2023/08/29 01:33:27;;;;;;;2.70;2.50;;;;;;;;;;5029465;28;20196;-85
2023/08/29 01:35:53;;;;;;;4.13;2.78;;;;;;;;;;5051097;28;20510;-85
2023/08/29 01:38:19;;;;;;;4.97;2.80;;;;;;;;;;5034931;28;20462;-84
2023/08/29 01:40:45;;;;;;;3.28;2.75;;;;;;;;;;5051569;28;20435;-84
2023/08/29 01:43:11;;;;;;;5.88;3.10;;;;;;;;;;5051446;28;20478;-84
2023/08/29 01:45:37;;;;;;;5.53;3.10;;;;;;;;;;5052167;28;20491;-84
2023/08/29 01:48:04;;;;;;;6.23;2.77;;;;;;;;;;5052478;28;20168;-85
2023/08/29 01:50:31;;;;;;;5.13;2.60;;;;;;;;;;5009728;28;20189;-85
2023/08/29 01:52:59;;;;;;;5.33;2.63;;;;;;;;;;5012834;28;20259;-85
2023/08/29 01:55:27;;;;;;;4.30;2.70;;;;;;;;;;5012731;28;20296;-85
2023/08/29 01:57:54;;;;;;;6.00;2.80;;;;;;;;;;5012820;28;20189;-85
2023/08/29 02:00:20;;;;;;;6.18;2.83;;;;;;;;;;5015408;28;20491;-85
2023/08/29 02:02:46;;;;;;;5.63;2.90;;;;;;;;;;5032461;28;20200;-85
2023/08/29 02:05:16;;;;;;;4.17;2.60;;;;;;;;;;5016010;28;20189;-85
2023/08/29 02:07:42;;;;;;;5.30;3.10;;;;;;;;;;5031521;28;20428;-85
2023/08/29 02:10:08;;;;;;;5.30;2.80;;;;;;;;;;5032310;28;20176;-85
2023/08/29 02:12:34;;;;;;;5.07;2.50;;;;;;;;;;5024377;28;20192;-85
2023/08/29 02:15:06;;;;;;;5.67;2.77;;;;;;;;;;5052388;28;20287;-84
2023/08/29 02:17:33;;;;;;;4.37;2.77;;;;;;;;;;5052205;28;20180;-85
2023/08/29 02:19:59;;;;;;;2.93;2.63;;;;;;;;;;5052314;28;20207;-85
2023/08/29 02:22:30;;;;;;;3.13;2.27;;;;;;;;;;5052317;28;20207;-86
2023/08/29 02:24:56;;;;;;;3.27;2.43;;;;;;;;;;5052089;28;20176;-86
2023/08/29 02:27:22;;;;;;;6.43;2.40;;;;;;;;;;5036016;28;20188;-85
2023/08/29 02:29:50;;;;;;;4.63;2.30;;;;;;;;;;5052332;28;20180;-85
2023/08/29 02:32:18;;;;;;;5.70;2.67;;;;;;;;;;5035695;28;20206;-85
2023/08/29 02:34:44;;;;;;;5.07;2.30;;;;;;;;;;5035976;28;20279;-85
2023/08/29 02:37:12;;;;;;;4.07;2.50;;;;;;;;;;5052036;28;20176;-85
2023/08/29 02:39:40;;;;;;;3.10;2.37;;;;;;;;;;5052158;28;20220;-85
2023/08/29 02:42:06;;;;;;;3.77;2.47;;;;;;;;;;5052284;28;20318;-86
2023/08/29 02:44:32;;;;;;;2.83;2.43;;;;;;;;;;5033032;28;20176;-85
2023/08/29 02:46:58;;;;;;;5.80;2.40;;;;;;;;;;5021773;28;20184;-84
2023/08/29 02:49:25;;;;;;;2.57;2.13;;;;;;;;;;5023616;28;20180;-85
2023/08/29 02:51:51;;;;;;;3.83;2.43;;;;;;;;;;5026075;28;20243;-85
2023/08/29 02:54:19;;;;;;;2.50;2.30;;;;;;;;;;5008911;28;20235;-84
2023/08/29 02:56:45;;;;;;;5.00;2.60;;;;;;;;;;5024263;28;20287;-85
2023/08/29 02:59:11;;;;;;;4.37;2.57;;;;;;;;;;5010722;28;20181;-85
2023/08/29 03:01:37;;;;;;;3.53;2.10;;;;;;;;;;5024686;28;20267;-85
2023/08/29 03:04:03;;;;;;;4.23;2.30;;;;;;;;;;5009528;28;20177;-85
2023/08/29 03:06:29;;;;;;;4.90;2.75;;;;;;;;;;5023647;28;20400;-84
2023/08/29 03:08:55;;;;;;;4.20;2.50;;;;;;;;;;5025696;28;20172;-85
2023/08/29 03:11:21;;;;;;;4.50;2.40;;;;;;;;;;5009546;28;20176;-85
2023/08/29 03:13:50;;;;;;;5.07;2.50;;;;;;;;;;5025849;28;20177;-84
2023/08/29 03:16:20;;;;;;;6.90;2.60;;;;;;;;;;5024640;28;20185;-85
2023/08/29 03:18:48;;;;;;;4.30;2.20;;;;;;;;;;5016059;28;20192;-85
2023/08/29 03:21:14;;;;;;;4.13;2.33;;;;;;;;;;5015455;28;20185;-85
2023/08/29 03:23:40;;;;;;;2.90;2.10;;;;;;;;;;5020831;28;20209;-85
2023/08/29 03:26:07;;;;;;;6.63;2.50;;;;;;;;;;5029903;28;20184;-85
2023/08/29 03:28:34;;;;;;;5.93;2.37;;;;;;;;;;5023585;28;20212;-84
2023/08/29 03:31:13;;;;;;;3.70;2.27;;;;;;;;;;5025114;28;20222;-85
2023/08/29 03:33:40;;;;;;;3.30;2.60;;;;;;;;;;5026406;28;20347;-85
2023/08/29 03:36:06;;;;;;;7.10;2.40;;;;;;;;;;5023485;28;20227;-85
2023/08/29 03:38:36;;;;;;;5.53;2.47;;;;;;;;;;5032089;28;20208;-85
2023/08/29 03:41:03;;;;;;;3.93;2.50;;;;;;;;;;5007910;28;20229;-85
2023/08/29 03:43:32;;;;;;;2.63;2.43;;;;;;;;;;5023326;28;20210;-85
2023/08/29 03:45:59;;;;;;;5.43;2.37;;;;;;;;;;5027456;28;20181;-85
2023/08/29 03:48:25;;;;;;;4.73;2.53;;;;;;;;;;5023005;28;20200;-84
2023/08/29 03:50:52;;;;;;;3.00;2.50;;;;;;;;;;5026778;28;20264;-84
2023/08/29 03:53:18;;;;;;;3.70;2.63;;;;;;;;;;5031366;28;20206;-84
2023/08/29 03:55:44;;;;;;;4.17;2.83;;;;;;;;;;5031580;28;20239;-85
2023/08/29 03:58:10;;;;;;;4.53;2.40;;;;;;;;;;5031127;28;20185;-85
2023/08/29 04:00:36;;;;;;;4.27;2.70;;;;;;;;;;5030234;28;20216;-84
2023/08/29 04:03:06;;;;;;;6.40;2.70;;;;;;;;;;5031175;28;20205;-84
2023/08/29 04:05:36;;;;;;;2.93;2.67;;;;;;;;;;5031348;28;20190;-84
2023/08/29 04:08:03;;;;;;;5.60;2.50;;;;;;;;;;5038907;28;20222;-84
2023/08/29 04:10:29;;;;;;;4.20;2.53;;;;;;;;;;5054077;28;20176;-84
2023/08/29 04:12:57;;;;;;;5.40;2.80;;;;;;;;;;5053956;28;20176;-85
2023/08/29 04:15:24;;;;;;;3.67;2.60;;;;;;;;;;5054129;28;20195;-84
2023/08/29 04:17:50;;;;;;;5.97;2.60;;;;;;;;;;5052053;28;20192;-84
2023/08/29 04:20:16;;;;;;;4.00;2.60;;;;;;;;;;5054172;28;20186;-84
2023/08/29 04:22:45;;;;;;;5.87;2.70;;;;;;;;;;5037238;28;20261;-84
2023/08/29 04:25:11;;;;;;;6.13;2.60;;;;;;;;;;5053624;28;20202;-83
2023/08/29 04:27:38;;;;;;;4.93;3.00;;;;;;;;;;5053521;28;20428;-84
2023/08/29 04:30:06;;;;;;;5.40;2.83;;;;;;;;;;5051305;28;20172;-84
2023/08/29 04:32:36;;;;;;;3.53;2.40;;;;;;;;;;5047266;28;20181;-84
2023/08/29 04:35:02;;;;;;;4.40;3.08;;;;;;;;;;5033102;28;20401;-84
2023/08/29 04:37:29;;;;;;;5.30;2.67;;;;;;;;;;5032880;28;20181;-84
2023/08/29 04:39:55;;;;;;;5.07;2.40;;;;;;;;;;5016399;28;20236;-84
2023/08/29 04:42:21;;;;;;;3.27;2.37;;;;;;;;;;5032377;28;20220;-83
2023/08/29 04:44:47;;;;;;;4.33;2.63;;;;;;;;;;5033298;28;20220;-84
2023/08/29 04:47:13;;;;;;;6.43;2.67;;;;;;;;;;5017132;28;20184;-83
2023/08/29 04:49:39;;;;;;;5.07;2.80;;;;;;;;;;5033453;28;20183;-83
2023/08/29 04:52:05;;;;;;;3.60;2.40;;;;;;;;;;5032287;28;20204;-83
2023/08/29 04:54:31;;;;;;;5.05;2.70;;;;;;;;;;5016782;28;20476;-83
2023/08/29 04:56:57;;;;;;;3.03;2.37;;;;;;;;;;5033326;28;20183;-83
2023/08/29 04:59:23;;;;;;;4.13;2.60;;;;;;;;;;5033270;28;20180;-84
2023/08/29 05:01:50;;;;;;;4.07;2.43;;;;;;;;;;5015503;28;20189;-84
2023/08/29 05:04:16;;;;;;;4.37;2.50;;;;;;;;;;5016867;28;20267;-84
2023/08/29 05:06:45;;;;;;;4.03;2.27;;;;;;;;;;5014245;28;20250;-83
2023/08/29 05:09:11;;;;;;;4.47;2.47;;;;;;;;;;5003611;28;20196;-83
2023/08/29 05:11:37;;;;;;;3.37;2.57;;;;;;;;;;5016619;28;20208;-84
2023/08/29 05:14:03;;;;;;;3.40;2.33;;;;;;;;;;5048518;28;20180;-84
2023/08/29 05:16:29;;;;;;;4.43;2.43;;;;;;;;;;5045464;28;20187;-84
2023/08/29 05:18:55;;;;;;;3.75;2.75;;;;;;;;;;5052638;28;20407;-84
2023/08/29 05:21:21;;;;;;;4.57;2.70;;;;;;;;;;5035907;28;20470;-83
2023/08/29 05:23:47;;;;;;;6.33;2.80;;;;;;;;;;5052823;28;20207;-84
2023/08/29 05:26:13;;;;;;;6.97;2.90;;;;;;;;;;5028484;28;20488;-84
2023/08/29 05:28:39;;;;;;;3.20;2.70;;;;;;;;;;5033107;28;20423;-84
2023/08/29 05:31:05;;;;;;;3.85;2.47;;;;;;;;;;5020155;28;20513;-84
2023/08/29 05:33:31;;;;;;;6.40;3.00;;;;;;;;;;5022954;28;20468;-84
2023/08/29 05:35:59;;;;;;;5.53;2.95;;;;;;;;;;5035474;28;20408;-84
2023/08/29 05:38:27;;;;;;;4.95;2.72;;;;;;;;;;5043105;28;20435;-82
2023/08/29 05:40:53;;;;;;;4.97;2.88;;;;;;;;;;5032357;28;20450;-82
2023/08/29 05:43:19;;;;;;;3.70;2.30;;;;;;;;;;5014255;28;20200;-82
2023/08/29 05:45:45;;;;;;;5.25;2.80;;;;;;;;;;5025286;28;20422;-81
2023/08/29 05:48:11;;;;;;;6.05;3.05;;;;;;;;;;5031801;28;20416;-81
2023/08/29 05:50:43;;;;;;;5.23;3.10;;;;;;;;;;5015386;28;20418;-81
2023/08/29 05:53:09;;;;;;;4.43;3.40;;;;;;;;;;5023119;28;20424;-81
2023/08/29 05:55:35;;;;;;;7.60;3.30;;;;;;;;;;4997028;28;20251;-84
2023/08/29 05:58:01;;;;;;;5.88;3.70;;;;;;;;;;5014987;28;20481;-84
2023/08/29 06:00:30;;;;;;;4.97;3.72;;;;;;;;;;5013103;28;20411;-83
2023/08/29 06:02:56;;;;;;;5.88;3.80;;;;;;;;;;5025163;28;20441;-83
2023/08/29 06:05:22;;;;;;;4.32;3.38;;;;;;;;;;5032626;28;20409;-84
2023/08/29 06:07:48;;;;;;;5.30;3.55;;;;;;;;;;5032467;28;20433;-84
2023/08/29 06:10:14;;;;;;;5.90;3.87;;;;;;;;;;5031475;28;20413;-84
2023/08/29 06:12:40;;;;;;;4.45;3.30;;;;;;;;;;5015318;28;20427;-84
2023/08/29 06:15:06;;;;;;;6.20;3.40;;;;;;;;;;5038247;28;20417;-84
2023/08/29 06:17:32;;;;;;;6.28;3.80;;;;;;;;;;5031747;28;20478;-84
2023/08/29 06:20:01;;;;;;;7.03;3.77;;;;;;;;;;5012855;28;20185;-84
2023/08/29 06:22:27;;;;;;;5.28;3.70;;;;;;;;;;5030434;28;20510;-82
2023/08/29 06:24:54;;;;;;;6.78;3.50;;;;;;;;;;5033924;28;20514;-82
2023/08/29 06:27:23;;;;;;;5.88;3.70;;;;;;;;;;5033872;28;20420;-81
2023/08/29 06:29:49;;;;;;;8.30;3.65;;;;;;;;;;5044163;28;20408;-81
2023/08/29 06:32:15;;;;;;;5.97;3.90;;;;;;;;;;5017844;28;20612;-82
2023/08/29 06:34:43;;;;;;;7.38;3.88;;;;;;;;;;5020984;28;20493;-82
2023/08/29 06:37:09;;;;;;;6.13;3.80;;;;;;;;;;5042920;28;20456;-82
2023/08/29 06:39:35;;;;;;;5.10;3.50;;;;;;;;;;5023870;28;20192;-82
2023/08/29 06:42:01;;;;;;;8.60;3.47;;;;;;;;;;5019208;28;20216;-82
2023/08/29 06:44:30;;;;;;;4.57;3.30;;;;;;;;;;5026520;28;20244;-84
2023/08/29 06:46:56;;;;;;;5.37;3.60;;;;;;;;;;5035905;28;20215;-82
2023/08/29 06:49:22;;;;;;;5.70;3.40;;;;;;;;;;5030314;28;20185;-82
2023/08/29 06:51:49;;;;;;;5.73;3.60;;;;;;;;;;5035328;28;20205;-83
2023/08/29 06:54:16;;;;;;;5.73;3.50;;;;;;;;;;5036007;28;20188;-83
2023/08/29 06:56:42;;;;;;;5.40;3.20;;;;;;;;;;5035705;28;20189;-87
2023/08/29 06:59:08;;;;;;;7.60;3.40;;;;;;;;;;5025627;28;20224;-83
2023/08/29 07:01:36;;;;;;;7.53;3.47;;;;;;;;;;5038921;28;20267;-83
2023/08/29 07:04:03;;;;;;;6.30;3.70;;;;;;;;;;5044432;28;20195;-82
2023/08/29 07:06:29;;;;;;;9.20;3.80;;;;;;;;;;5019558;28;20208;-83
2023/08/29 07:08:55;;;;;;;6.40;3.57;;;;;;;;;;5025924;28;20304;-82
2023/08/29 07:11:23;;;;;;;5.27;3.90;;;;;;;;;;5021648;28;20392;-82
2023/08/29 07:13:49;;;;;;;6.93;3.67;;;;;;;;;;5050421;28;20188;-82
2023/08/29 07:16:16;;;;;;;5.17;3.20;;;;;;;;;;5034758;28;20191;-82
2023/08/29 07:18:45;;;;;;;5.40;3.30;;;;;;;;;;5044647;28;20188;-82
2023/08/29 07:21:11;;;;;;;7.70;3.13;;;;;;;;;;5028015;28;20259;-82
2023/08/29 07:23:37;;;;;;;6.87;2.93;;;;;;;;;;5017286;28;20204;-82
2023/08/29 07:26:03;;;;;;;6.70;2.90;;;;;;;;;;5047352;28;20196;-83
2023/08/29 07:28:32;;;;;;;5.57;2.90;;;;;;;;;;5026274;28;20180;-82
2023/08/29 07:30:58;;;;;;;4.60;3.00;;;;;;;;;;5039431;28;20185;-82
2023/08/29 07:33:24;;;;;;;3.50;2.30;;;;;;;;;;5029600;28;20185;-82
2023/08/29 07:35:54;;;;;;;3.00;1.90;;;;;;;;;;5049616;28;20183;-83
2023/08/29 07:38:20;;;;;;;5.20;1.90;;;;;;;;;;5034300;28;20193;-83
2023/08/29 07:40:46;;;;;;;3.27;1.63;;;;;;;;;;5033525;28;20251;-82
2023/08/29 07:43:12;;;;;;;2.80;1.60;;;;;;;;;;5036810;28;20219;-82
2023/08/29 07:45:38;;;;;;;5.43;1.60;;;;;;;;;;5033647;28;20169;-82
2023/08/29 07:48:04;;;;;;;3.80;1.80;;;;;;;;;;5046679;28;20189;-82
2023/08/29 07:50:30;;;;;;;2.63;1.67;;;;;;;;;;5025964;28;20185;-82
2023/08/29 07:52:59;;;;;;;5.67;1.80;;;;;;;;;;5037997;28;20266;-82
2023/08/29 07:55:25;;;;;;;4.50;1.77;;;;;;;;;;5022437;28;20188;-82
2023/08/29 07:57:51;;;;;;;2.33;1.47;;;;;;;;;;5043125;28;20214;-82
2023/08/29 08:00:18;;;;;;;4.13;1.43;;;;;;;;;;5030859;28;20279;-83
2023/08/29 08:02:44;;;;;;;4.50;1.70;;;;;;;;;;5026457;28;20205;-82
2023/08/29 08:05:12;;;;;;;5.50;1.70;;;;;;;;;;5033062;28;20288;-82
2023/08/29 08:07:41;;;;;;;2.33;1.30;;;;;;;;;;5039575;28;20180;-83
2023/08/29 08:10:07;;;;;;;3.73;1.57;;;;;;;;;;5034010;28;20271;-83
2023/08/29 08:12:34;;;;;;;3.50;1.87;;;;;;;;;;5032108;28;20192;-83
2023/08/29 08:15:00;;;;;;;2.60;1.53;;;;;;;;;;5037147;28;20184;-83
2023/08/29 08:17:31;;;;;;;2.57;1.43;;;;;;;;;;5054135;28;20190;-83
2023/08/29 08:19:57;;;;;;;2.80;1.57;;;;;;;;;;5037074;28;20208;-83
2023/08/29 08:22:24;;;;;;;3.13;1.73;;;;;;;;;;5017138;28;20208;-83
2023/08/29 08:24:52;;;;;;;3.40;1.60;;;;;;;;;;5020435;28;20188;-83
2023/08/29 08:27:19;;;;;;;2.73;1.80;;;;;;;;;;5012866;28;20296;-83
2023/08/29 08:29:45;;;;;;;4.27;1.50;;;;;;;;;;5040586;28;20187;-83
2023/08/29 08:32:14;;;;;;;3.00;1.40;;;;;;;;;;5037572;28;20192;-83
2023/08/29 08:34:41;;;;;;;2.37;1.50;;;;;;;;;;5033752;28;20188;-83
2023/08/29 08:37:08;;;;;;;5.03;1.67;;;;;;;;;;5033863;28;20181;-83
2023/08/29 08:39:34;;;;;;;2.33;1.47;;;;;;;;;;5049694;28;20180;-83
2023/08/29 08:42:03;;;;;;;3.33;1.80;;;;;;;;;;5048069;28;20239;-83
2023/08/29 08:44:31;;;;;;;2.60;1.50;;;;;;;;;;5043681;28;20271;-83
2023/08/29 08:46:59;;;;;;;2.67;1.10;;;;;;;;;;5053313;28;20229;-83
2023/08/29 08:49:26;;;;;;;2.93;1.50;;;;;;;;;;5026157;28;20181;-83
2023/08/29 08:51:53;;;;;;;2.43;1.30;;;;;;;;;;5032717;28;20281;-83
2023/08/29 08:54:19;;;;;;;2.10;1.17;;;;;;;;;;5025157;28;20187;-83
2023/08/29 08:56:45;;;;;;;2.10;1.10;;;;;;;;;;5053272;28;20301;-83
2023/08/29 08:59:11;;;;;;;3.30;1.20;;;;;;;;;;5036849;28;20192;-83
2023/08/29 09:01:38;;;;;;;2.83;1.10;;;;;;;;;;5053441;28;20270;-83
2023/08/29 09:04:07;;;;;;;3.23;1.37;;;;;;;;;;5052817;28;20243;-83
2023/08/29 09:06:34;;;;;;;3.20;1.40;;;;;;;;;;5033742;28;20203;-83
2023/08/29 09:09:19;;;;;;;2.33;1.10;;;;;;;;;;5032326;28;20188;-83
2023/08/29 09:11:58;;;;;;;2.43;1.30;;;;;;;;;;5033144;28;20184;-83
2023/08/29 09:14:27;;;;;;;1.83;1.20;;;;;;;;;;5032326;28;20191;-83
2023/08/29 09:16:54;;;;;;;2.33;1.37;;;;;;;;;;5034484;28;20187;-83
2023/08/29 09:19:21;;;;;;;2.75;1.40;;;;;;;;;;5035154;28;20433;-83
2023/08/29 09:21:47;;;;;;;3.00;1.20;;;;;;;;;;5016105;28;20409;-83
2023/08/29 09:24:13;;;;;;;2.80;1.13;;;;;;;;;;5031274;28;20429;-83
2023/08/29 09:26:40;;;;;;;2.70;1.13;;;;;;;;;;5031457;28;20508;-84
2023/08/29 09:29:22;;;;;;;5.10;1.30;;;;;;;;;;5028046;28;20178;-83
2023/08/29 09:31:48;;;;;;;3.70;1.20;;;;;;;;;;5013549;28;20445;-83
2023/08/29 09:34:23;;;;;;;3.78;1.30;;;;;;;;;;5024794;28;20520;-83
2023/08/29 09:36:50;;;;;;;3.00;1.25;;;;;;;;;;5047151;28;20417;-83
2023/08/29 09:39:16;;;;;;;3.05;1.30;;;;;;;;;;5034538;28;20420;-84
2023/08/29 09:41:42;;;;;;;3.27;1.40;;;;;;;;;;5031903;28;20432;-83
2023/08/29 09:44:12;;;;;;;3.10;1.10;;;;;;;;;;5028608;28;20208;-84
2023/08/29 09:46:43;;;;;;;2.37;1.30;;;;;;;;;;5041992;28;20206;-84
2023/08/29 09:49:09;;;;;;;1.90;1.23;;;;;;;;;;5032196;28;20179;-84
2023/08/29 09:51:36;;;;;;;1.52;1.00;;;;;;;;;;5014405;28;20494;-84
2023/08/29 09:54:07;;;;;;;1.60;1.00;;;;;;;;;;5046904;28;20187;-84
2023/08/29 09:56:34;;;;;;;1.63;1.07;;;;;;;;;;5032046;28;20184;-84
2023/08/29 09:59:03;;;;;;;2.07;1.10;;;;;;;;;;5033517;28;20182;-84
2023/08/29 10:01:30;;;;;;;1.30;0.90;;;;;;;;;;5028488;28;20180;-84
2023/08/29 10:03:57;;;;;;;2.70;1.00;;;;;;;;;;5034656;28;20425;-84
2023/08/29 10:06:24;;;;;;;2.83;1.13;;;;;;;;;;5036857;28;20188;-84
2023/08/29 10:08:55;;;;;;;1.92;1.10;;;;;;;;;;5036409;28;20291;-84
2023/08/29 10:11:23;;;;;;;2.10;1.00;;;;;;;;;;5035338;28;20173;-84
2023/08/29 10:13:50;;;;;;;3.78;1.20;;;;;;;;;;5049923;28;20427;-83
2023/08/29 10:16:16;;;;;;;2.00;1.25;;;;;;;;;;5024535;28;20433;-83
2023/08/29 10:18:52;;;;;;;4.93;1.13;;;;;;;;;;5051613;28;20229;-83
2023/08/29 10:21:21;;;;;;;2.85;1.25;;;;;;;;;;5044857;28;20191;-83
2023/08/29 10:23:49;;;;;;;2.63;1.20;;;;;;;;;;5045775;28;20433;-83
2023/08/29 10:26:20;;;;;;;2.15;1.30;;;;;;;;;;5034939;28;20409;-83
2023/08/29 10:28:47;;;;;;;2.95;1.10;;;;;;;;;;5049124;28;20431;-83
2023/08/29 10:31:13;;;;;;;3.25;1.10;;;;;;;;;;5034862;28;20421;-83
2023/08/29 10:33:41;;;;;;;1.70;0.95;;;;;;;;;;5017688;28;20425;-83
2023/08/29 10:36:18;;;;;;;2.50;1.20;;;;;;;;;;5042034;28;20417;-82
2023/08/29 10:38:48;;;;;;;2.50;0.93;;;;;;;;;;5037850;28;20425;-84
2023/08/29 10:41:16;;;;;;;2.28;0.98;;;;;;;;;;5059871;28;20474;-83
2023/08/29 10:43:52;;;;;;;2.20;1.17;;;;;;;;;;5032677;28;20433;-86
2023/08/29 10:46:22;;;;;;;2.05;1.20;;;;;;;;;;5034204;28;20421;-86
2023/08/29 10:48:51;;;;;;;3.33;1.83;;;;;;;;;;5035283;28;20432;-85
2023/08/29 10:51:32;;;;;;;;;;;;;;;;;;;;;
2023/08/29 10:54:08;;;;;;;3.08;1.30;;;;;;;;;;5016523;28;20407;-85
2023/08/29 10:56:41;;;;;;;1.80;1.25;;;;;;;;;;5015093;28;20422;-85
2023/08/29 10:59:29;;;;;;;2.38;1.17;;;;;;;;;;5043745;28;20416;-85
2023/08/29 11:02:14;;;;;;;2.13;1.17;;;;;;;;;;5055613;28;20419;-82
2023/08/29 11:04:40;;;;;;;3.47;1.27;;;;;;;;;;5033076;28;20418;-82
2023/08/29 11:07:09;;;;;;;3.33;1.37;;;;;;;;;;5033951;28;20421;-82
2023/08/29 11:09:37;;;;;;;1.90;1.20;;;;;;;;;;5037008;28;20426;-84
2023/08/29 11:12:07;;;;;;;3.28;1.30;;;;;;;;;;5046292;28;20425;-84
2023/08/29 11:15:03;;;;;;;3.05;1.27;;;;;;;;;;5036661;28;20210;-83
2023/08/29 11:17:31;;;;;;;2.88;1.30;;;;;;;;;;5033291;28;20180;-82
2023/08/29 11:19:58;;;;;;;3.10;1.50;;;;;;;;;;5028689;28;20431;-84
2023/08/29 11:22:29;;;;;;;2.70;1.80;;;;;;;;;;5023398;28;20521;-83
2023/08/29 11:24:55;;;;;;;2.58;1.40;;;;;;;;;;5022630;28;20403;-84
2023/08/29 11:27:27;;;;;;;2.42;1.38;;;;;;;;;;5025520;28;20403;-84
2023/08/29 11:29:56;;;;;;;2.03;1.55;;;;;;;;;;5023496;28;20169;-83
2023/08/29 11:32:22;;;;;;;4.28;1.83;;;;;;;;;;5035102;28;20195;-83
2023/08/29 11:34:52;;;;;;;8.70;2.10;;;;;;;;;;5040711;28;20176;-83
2023/08/29 11:37:18;;;;;;;2.83;1.65;;;;;;;;;;5015220;28;20178;-83
2023/08/29 11:40:03;;;;;;;3.10;2.08;;;;;;;;;;4999153;28;20189;-83
2023/08/29 11:42:29;;;;;;;3.47;2.30;;;;;;;;;;5015426;28;20243;-83
2023/08/29 11:44:58;;;;;;;4.22;2.40;;;;;;;;;;5015141;28;20208;-83
2023/08/29 11:47:25;;;;;;;3.95;2.72;;;;;;;;;;5014877;28;20205;-83
2023/08/29 11:49:51;;;;;;;3.50;2.70;;;;;;;;;;4998794;28;20181;-83
2023/08/29 11:52:20;;;;;;;5.20;2.78;;;;;;;;;;4998763;28;20291;-83
2023/08/29 11:54:47;;;;;;;3.22;2.53;;;;;;;;;;5014850;28;20259;-83
2023/08/29 11:57:13;;;;;;;4.30;2.60;;;;;;;;;;5014837;28;20257;-83
2023/08/29 11:59:42;;;;;;;7.30;3.13;;;;;;;;;;5014789;28;20261;-83
2023/08/29 12:02:11;;;;;;;6.20;3.30;;;;;;;;;;5016896;28;20201;-83
2023/08/29 12:04:41;;;;;;;4.88;3.22;;;;;;;;;;5016022;28;20189;-84
2023/08/29 12:07:11;;;;;;;5.10;3.10;;;;;;;;;;5014537;28;20271;-83
2023/08/29 12:09:42;;;;;;;3.45;3.08;;;;;;;;;;5013723;28;20410;-83
2023/08/29 12:12:08;;;;;;;5.07;3.00;;;;;;;;;;5013413;28;20431;-83
2023/08/29 12:14:52;;;;;;;4.60;3.38;;;;;;;;;;4997617;28;20502;-84
2023/08/29 12:17:18;;;;;;;4.85;3.10;;;;;;;;;;5013427;28;20435;-83
2023/08/29 12:19:45;;;;;;;3.85;2.88;;;;;;;;;;5024427;28;20184;-84
2023/08/29 12:22:13;;;;;;;5.27;3.33;;;;;;;;;;5012882;28;20427;-84
2023/08/29 12:24:40;;;;;;;4.20;3.20;;;;;;;;;;5014240;28;20174;-85
2023/08/29 12:27:06;;;;;;;4.38;3.80;;;;;;;;;;5014337;28;20189;-84
2023/08/29 12:29:34;;;;;;;4.35;3.17;;;;;;;;;;5014126;28;20200;-85
2023/08/29 12:32:00;;;;;;;5.30;3.30;;;;;;;;;;4997987;28;20188;-85
2023/08/29 12:34:27;;;;;;;4.65;3.20;;;;;;;;;;5014700;28;20173;-85
2023/08/29 12:36:56;;;;;;;4.47;3.13;;;;;;;;;;5030350;28;20205;-86
2023/08/29 12:39:22;;;;;;;4.15;3.50;;;;;;;;;;5013960;28;20426;-86
2023/08/29 12:41:54;;;;;;;4.72;3.65;;;;;;;;;;5029281;28;20427;-86
2023/08/29 12:44:20;;;;;;;3.90;3.50;;;;;;;;;;5029545;28;20439;-85
2023/08/29 12:46:46;;;;;;;3.72;3.17;;;;;;;;;;5029318;28;20403;-85
2023/08/29 12:49:12;;;;;;;4.95;3.75;;;;;;;;;;5029538;28;20403;-85
2023/08/29 12:51:44;;;;;;;4.00;2.72;;;;;;;;;;5029442;28;20414;-86
2023/08/29 12:54:10;;;;;;;3.78;2.85;;;;;;;;;;5029472;28;20426;-86
2023/08/29 12:56:39;;;;;;;4.43;2.78;;;;;;;;;;5029869;28;20415;-85
2023/08/29 12:59:05;;;;;;;3.38;2.30;;;;;;;;;;5029404;28;20399;-86
2023/08/29 13:01:31;;;;;;;4.28;2.17;;;;;;;;;;5014110;28;20185;-85
2023/08/29 13:04:00;;;;;;;3.25;2.03;;;;;;;;;;5030460;28;20213;-86
2023/08/29 13:06:47;;;;;;;3.03;2.30;;;;;;;;;;5030764;28;20223;-86
2023/08/29 13:09:16;;;;;;;2.60;1.67;;;;;;;;;;5030387;28;20178;-87
2023/08/29 13:11:42;;;;;;;2.42;1.80;;;;;;;;;;5030446;28;20166;-86
2023/08/29 13:14:11;;;;;;;2.88;2.05;;;;;;;;;;5029389;28;20442;-85
2023/08/29 13:16:40;;;;;;;2.55;2.17;;;;;;;;;;5029827;28;20208;-85
2023/08/29 13:19:14;;;;;;;2.20;2.00;;;;;;;;;;5013962;28;20189;-86
2023/08/29 13:21:40;;;;;;;4.90;2.60;;;;;;;;;;5029742;28;20185;-86
2023/08/29 13:24:14;;;;;;;2.85;2.50;;;;;;;;;;5029672;28;20212;-86
2023/08/29 13:26:43;;;;;;;2.30;2.10;;;;;;;;;;5029996;28;20203;-86
2023/08/29 13:29:09;;;;;;;2.50;2.30;;;;;;;;;;5029624;28;20260;-87
2023/08/29 13:31:35;;;;;;;5.00;2.50;;;;;;;;;;5013680;28;20184;-87
2023/08/29 13:34:03;;;;;;;4.32;2.75;;;;;;;;;;5028545;28;20213;-86
2023/08/29 13:36:31;;;;;;;3.78;2.30;;;;;;;;;;5029596;28;20177;-86
2023/08/29 13:39:04;;;;;;;2.95;2.13;;;;;;;;;;5029828;28;20177;-86
2023/08/29 13:41:30;;;;;;;2.67;2.17;;;;;;;;;;5029048;28;20252;-87
2023/08/29 13:43:56;;;;;;;2.42;2.17;;;;;;;;;;5028353;28;20434;-85
2023/08/29 13:46:26;;;;;;;2.78;2.10;;;;;;;;;;5012401;28;20415;-85
2023/08/29 13:48:52;;;;;;;4.28;2.22;;;;;;;;;;5028791;28;20410;-85
2023/08/29 13:51:18;;;;;;;2.72;1.75;;;;;;;;;;5013831;28;20181;-85
2023/08/29 13:53:49;;;;;;;2.53;1.70;;;;;;;;;;5029342;28;20237;-85
2023/08/29 13:56:15;;;;;;;2.33;1.80;;;;;;;;;;5028669;28;20415;-85
2023/08/29 13:58:42;;;;;;;2.83;1.90;;;;;;;;;;5029599;28;20181;-86
2023/08/29 14:01:10;;;;;;;2.30;1.30;;;;;;;;;;5029349;28;20173;-86
2023/08/29 14:03:37;;;;;;;2.60;1.17;;;;;;;;;;5029340;28;20267;-86
2023/08/29 14:06:03;;;;;;;1.95;1.23;;;;;;;;;;5030035;28;20177;-89
2023/08/29 14:08:39;;;;;;;2.40;1.25;;;;;;;;;;5029673;28;20327;-90
2023/08/29 14:11:09;;;;;;;1.67;1.25;;;;;;;;;;5029428;28;20180;-89
2023/08/29 14:13:38;;;;;;;3.50;1.45;;;;;;;;;;5028848;28;20415;-89
2023/08/29 14:16:09;;;;;;;2.63;1.60;;;;;;;;;;5029153;28;20509;-90
2023/08/29 14:18:35;;;;;;;2.22;1.50;;;;;;;;;;5028617;28;20419;-89
2023/08/29 14:21:04;;;;;;;2.70;1.75;;;;;;;;;;5030894;28;20188;-89
2023/08/29 14:23:30;;;;;;;2.90;1.25;;;;;;;;;;5029892;28;20271;-88
2023/08/29 14:25:56;;;;;;;1.65;1.38;;;;;;;;;;5029986;28;20182;-90
2023/08/29 14:28:22;;;;;;;2.55;1.42;;;;;;;;;;5029617;28;20206;-89
2023/08/29 14:30:51;;;;;;;2.35;1.27;;;;;;;;;;5028833;28;20403;-88
2023/08/29 14:33:17;;;;;;;2.50;1.40;;;;;;;;;;5028980;28;20506;-88
2023/08/29 14:35:43;;;;;;;2.08;1.50;;;;;;;;;;5029460;28;20431;-85
2023/08/29 14:38:12;;;;;;;2.00;1.30;;;;;;;;;;5012471;28;20450;-85
2023/08/29 14:40:39;;;;;;;2.88;1.50;;;;;;;;;;5028443;28;20502;-85
2023/08/29 14:43:05;;;;;;;1.90;1.40;;;;;;;;;;5028999;28;20438;-88
2023/08/29 14:45:33;;;;;;;2.20;1.30;;;;;;;;;;5031773;28;20407;-88
2023/08/29 14:47:59;;;;;;;1.63;1.35;;;;;;;;;;5033396;28;20178;-89